sensor_id;sensor_type;location;lat;lon;timestamp;P1;durP1;ratioP1;P2;durP2;ratioP2
1020;SDS011;499;42.648;23.270;2024-01-06T00:01:26;12.40;;;9.00;;
1020;SDS011;499;42.648;23.270;2024-01-06T00:03:56;11.53;;;10.07;;
1020;SDS011;499;42.648;23.270;2024-01-06T00:09:21;6.03;;;5.53;;
1020;SDS011;499;42.648;23.270;2024-01-06T00:12:08;9.00;;;7.67;;
1020;SDS011;499;42.648;23.270;2024-01-06T00:14:44;12.07;;;8.87;;
1020;SDS011;499;42.648;23.270;2024-01-06T00:17:22;8.70;;;7.83;;
1020;SDS011;499;42.648;23.270;2024-01-06T00:20:11;11.20;;;8.47;;
1020;SDS011;499;42.648;23.270;2024-01-06T00:23:09;9.33;;;7.77;;
1020;SDS011;499;42.648;23.270;2024-01-06T00:26:28;6.10;;;5.03;;
1020;SDS011;499;42.648;23.270;2024-01-06T00:29:37;5.83;;;4.10;;
1020;SDS011;499;42.648;23.270;2024-01-06T00:32:22;2.73;;;2.53;;
1020;SDS011;499;42.648;23.270;2024-01-06T00:35:31;4.70;;;2.50;;
1020;SDS011;499;42.648;23.270;2024-01-06T00:38:21;2.20;;;1.90;;
1020;SDS011;499;42.648;23.270;2024-01-06T00:41:15;3.80;;;2.90;;
1020;SDS011;499;42.648;23.270;2024-01-06T00:44:55;3.27;;;2.30;;
1020;SDS011;499;42.648;23.270;2024-01-06T00:47:52;5.80;;;3.20;;
1020;SDS011;499;42.648;23.270;2024-01-06T00:51:06;4.93;;;3.40;;
1020;SDS011;499;42.648;23.270;2024-01-06T00:54:31;2.90;;;2.60;;
1020;SDS011;499;42.648;23.270;2024-01-06T00:57:59;7.50;;;4.00;;
1020;SDS011;499;42.648;23.270;2024-01-06T01:00:37;6.50;;;4.90;;
1020;SDS011;499;42.648;23.270;2024-01-06T01:03:28;3.63;;;3.33;;
1020;SDS011;499;42.648;23.270;2024-01-06T01:06:15;2.47;;;1.90;;
1020;SDS011;499;42.648;23.270;2024-01-06T01:09:13;2.50;;;1.80;;
1020;SDS011;499;42.648;23.270;2024-01-06T01:12:22;2.47;;;2.27;;
1020;SDS011;499;42.648;23.270;2024-01-06T01:15:23;3.50;;;2.10;;
1020;SDS011;499;42.648;23.270;2024-01-06T01:21:26;2.50;;;2.13;;
1020;SDS011;499;42.648;23.270;2024-01-06T01:24:38;3.73;;;3.00;;
1020;SDS011;499;42.648;23.270;2024-01-06T01:27:12;8.47;;;6.87;;
1020;SDS011;499;42.648;23.270;2024-01-06T01:29:47;7.30;;;5.70;;
1020;SDS011;499;42.648;23.270;2024-01-06T01:33:01;3.37;;;2.73;;
1020;SDS011;499;42.648;23.270;2024-01-06T01:35:31;2.93;;;2.40;;
1020;SDS011;499;42.648;23.270;2024-01-06T01:38:02;3.87;;;2.50;;
1020;SDS011;499;42.648;23.270;2024-01-06T01:40:50;3.23;;;2.40;;
1020;SDS011;499;42.648;23.270;2024-01-06T01:43:50;4.17;;;2.20;;
1020;SDS011;499;42.648;23.270;2024-01-06T01:46:48;2.33;;;1.70;;
1020;SDS011;499;42.648;23.270;2024-01-06T01:49:34;13.20;;;7.70;;
1020;SDS011;499;42.648;23.270;2024-01-06T01:55:59;4.40;;;3.90;;
1020;SDS011;499;42.648;23.270;2024-01-06T01:59:11;3.33;;;3.03;;
1020;SDS011;499;42.648;23.270;2024-01-06T02:02:42;2.87;;;2.50;;
1020;SDS011;499;42.648;23.270;2024-01-06T02:05:13;2.83;;;2.43;;
1020;SDS011;499;42.648;23.270;2024-01-06T02:07:53;4.40;;;1.93;;
1020;SDS011;499;42.648;23.270;2024-01-06T02:10:39;2.30;;;1.80;;
1020;SDS011;499;42.648;23.270;2024-01-06T02:14:12;7.73;;;3.70;;
1020;SDS011;499;42.648;23.270;2024-01-06T02:17:21;4.93;;;2.83;;
1020;SDS011;499;42.648;23.270;2024-01-06T02:19:56;7.47;;;3.60;;
1020;SDS011;499;42.648;23.270;2024-01-06T02:22:27;5.00;;;4.40;;
1020;SDS011;499;42.648;23.270;2024-01-06T02:24:56;4.83;;;3.97;;
1020;SDS011;499;42.648;23.270;2024-01-06T02:27:32;3.37;;;3.00;;
1020;SDS011;499;42.648;23.270;2024-01-06T02:30:00;4.43;;;3.10;;
1020;SDS011;499;42.648;23.270;2024-01-06T02:32:27;3.30;;;2.17;;
1020;SDS011;499;42.648;23.270;2024-01-06T02:34:54;2.27;;;2.07;;
1020;SDS011;499;42.648;23.270;2024-01-06T02:37:23;3.43;;;2.53;;
1020;SDS011;499;42.648;23.270;2024-01-06T02:40:03;3.70;;;2.73;;
1020;SDS011;499;42.648;23.270;2024-01-06T02:42:31;9.60;;;3.90;;
1020;SDS011;499;42.648;23.270;2024-01-06T02:44:59;4.33;;;2.60;;
1020;SDS011;499;42.648;23.270;2024-01-06T02:47:28;3.17;;;2.53;;
1020;SDS011;499;42.648;23.270;2024-01-06T02:49:55;3.43;;;2.47;;
1020;SDS011;499;42.648;23.270;2024-01-06T02:52:22;2.60;;;2.30;;
1020;SDS011;499;42.648;23.270;2024-01-06T02:54:52;3.87;;;3.40;;
1020;SDS011;499;42.648;23.270;2024-01-06T02:57:20;11.43;;;7.03;;
1020;SDS011;499;42.648;23.270;2024-01-06T02:59:47;7.43;;;4.93;;
1020;SDS011;499;42.648;23.270;2024-01-06T03:02:16;6.03;;;4.10;;
1020;SDS011;499;42.648;23.270;2024-01-06T03:04:46;4.70;;;3.63;;
1020;SDS011;499;42.648;23.270;2024-01-06T03:07:14;5.20;;;4.13;;
1020;SDS011;499;42.648;23.270;2024-01-06T03:09:42;3.87;;;3.47;;
1020;SDS011;499;42.648;23.270;2024-01-06T03:12:15;7.20;;;5.40;;
1020;SDS011;499;42.648;23.270;2024-01-06T03:15:04;4.13;;;3.70;;
1020;SDS011;499;42.648;23.270;2024-01-06T03:17:55;7.40;;;5.30;;
1020;SDS011;499;42.648;23.270;2024-01-06T03:20:22;5.77;;;5.10;;
1020;SDS011;499;42.648;23.270;2024-01-06T03:22:49;4.90;;;4.20;;
1020;SDS011;499;42.648;23.270;2024-01-06T03:25:18;4.00;;;3.67;;
1020;SDS011;499;42.648;23.270;2024-01-06T03:27:49;5.10;;;4.40;;
1020;SDS011;499;42.648;23.270;2024-01-06T03:30:23;5.93;;;3.70;;
1020;SDS011;499;42.648;23.270;2024-01-06T03:32:51;12.77;;;8.37;;
1020;SDS011;499;42.648;23.270;2024-01-06T03:35:22;30.37;;;18.20;;
1020;SDS011;499;42.648;23.270;2024-01-06T03:37:58;35.57;;;17.13;;
1020;SDS011;499;42.648;23.270;2024-01-06T03:40:26;35.30;;;18.80;;
1020;SDS011;499;42.648;23.270;2024-01-06T03:42:54;49.37;;;22.33;;
1020;SDS011;499;42.648;23.270;2024-01-06T03:45:21;38.67;;;22.20;;
1020;SDS011;499;42.648;23.270;2024-01-06T03:47:59;27.43;;;14.87;;
1020;SDS011;499;42.648;23.270;2024-01-06T03:51:03;25.10;;;13.87;;
1020;SDS011;499;42.648;23.270;2024-01-06T03:53:36;11.93;;;7.20;;
1020;SDS011;499;42.648;23.270;2024-01-06T03:56:32;7.07;;;3.97;;
1020;SDS011;499;42.648;23.270;2024-01-06T03:59:03;2.97;;;2.40;;
1020;SDS011;499;42.648;23.270;2024-01-06T04:01:32;2.57;;;2.20;;
1020;SDS011;499;42.648;23.270;2024-01-06T04:04:12;4.37;;;2.03;;
1020;SDS011;499;42.648;23.270;2024-01-06T04:06:41;2.77;;;2.50;;
1020;SDS011;499;42.648;23.270;2024-01-06T04:09:10;2.77;;;2.40;;
1020;SDS011;499;42.648;23.270;2024-01-06T04:11:47;3.40;;;2.57;;
1020;SDS011;499;42.648;23.270;2024-01-06T04:14:22;3.60;;;2.23;;
1020;SDS011;499;42.648;23.270;2024-01-06T04:16:58;6.90;;;4.07;;
1020;SDS011;499;42.648;23.270;2024-01-06T04:19:25;8.00;;;5.47;;
1020;SDS011;499;42.648;23.270;2024-01-06T04:21:53;3.63;;;2.40;;
1020;SDS011;499;42.648;23.270;2024-01-06T04:24:20;3.33;;;3.00;;
1020;SDS011;499;42.648;23.270;2024-01-06T04:26:47;4.47;;;3.17;;
1020;SDS011;499;42.648;23.270;2024-01-06T04:29:16;4.43;;;3.13;;
1020;SDS011;499;42.648;23.270;2024-01-06T04:32:20;2.77;;;2.50;;
1020;SDS011;499;42.648;23.270;2024-01-06T04:34:47;3.97;;;3.60;;
1020;SDS011;499;42.648;23.270;2024-01-06T04:37:17;5.30;;;4.00;;
1020;SDS011;499;42.648;23.270;2024-01-06T04:39:49;3.27;;;2.97;;
1020;SDS011;499;42.648;23.270;2024-01-06T04:42:17;3.93;;;3.03;;
1020;SDS011;499;42.648;23.270;2024-01-06T04:44:49;3.43;;;3.10;;
1020;SDS011;499;42.648;23.270;2024-01-06T04:47:17;5.27;;;4.50;;
1020;SDS011;499;42.648;23.270;2024-01-06T04:49:54;3.80;;;3.50;;
1020;SDS011;499;42.648;23.270;2024-01-06T04:52:21;5.60;;;5.10;;
1020;SDS011;499;42.648;23.270;2024-01-06T04:54:48;8.30;;;3.83;;
1020;SDS011;499;42.648;23.270;2024-01-06T04:57:22;13.50;;;11.00;;
1020;SDS011;499;42.648;23.270;2024-01-06T05:00:15;28.83;;;20.60;;
1020;SDS011;499;42.648;23.270;2024-01-06T05:02:56;15.77;;;12.97;;
1020;SDS011;499;42.648;23.270;2024-01-06T05:05:45;10.40;;;9.30;;
1020;SDS011;499;42.648;23.270;2024-01-06T05:08:41;9.77;;;8.83;;
1020;SDS011;499;42.648;23.270;2024-01-06T05:11:33;13.67;;;12.00;;
1020;SDS011;499;42.648;23.270;2024-01-06T05:14:07;8.87;;;7.90;;
1020;SDS011;499;42.648;23.270;2024-01-06T05:16:35;7.30;;;6.30;;
1020;SDS011;499;42.648;23.270;2024-01-06T05:19:07;9.30;;;7.77;;
1020;SDS011;499;42.648;23.270;2024-01-06T05:21:54;9.40;;;7.50;;
1020;SDS011;499;42.648;23.270;2024-01-06T05:24:36;8.20;;;6.07;;
1020;SDS011;499;42.648;23.270;2024-01-06T05:27:04;10.43;;;7.00;;
1020;SDS011;499;42.648;23.270;2024-01-06T05:29:31;6.20;;;4.80;;
1020;SDS011;499;42.648;23.270;2024-01-06T05:32:01;6.90;;;5.17;;
1020;SDS011;499;42.648;23.270;2024-01-06T05:34:28;6.40;;;5.00;;
1020;SDS011;499;42.648;23.270;2024-01-06T05:37:03;4.97;;;3.90;;
1020;SDS011;499;42.648;23.270;2024-01-06T05:40:06;4.27;;;3.60;;
1020;SDS011;499;42.648;23.270;2024-01-06T05:42:47;3.57;;;3.17;;
1020;SDS011;499;42.648;23.270;2024-01-06T05:45:35;4.60;;;3.07;;
1020;SDS011;499;42.648;23.270;2024-01-06T05:48:27;5.70;;;3.93;;
1020;SDS011;499;42.648;23.270;2024-01-06T05:51:44;4.47;;;3.97;;
1020;SDS011;499;42.648;23.270;2024-01-06T05:54:27;4.10;;;2.97;;
1020;SDS011;499;42.648;23.270;2024-01-06T05:57:13;4.20;;;3.40;;
1020;SDS011;499;42.648;23.270;2024-01-06T06:00:37;3.10;;;2.10;;
1020;SDS011;499;42.648;23.270;2024-01-06T06:10:14;4.60;;;4.20;;
1020;SDS011;499;42.648;23.270;2024-01-06T06:13:09;6.53;;;4.30;;
1020;SDS011;499;42.648;23.270;2024-01-06T06:16:26;4.83;;;4.37;;
1020;SDS011;499;42.648;23.270;2024-01-06T06:19:15;5.93;;;5.10;;
1020;SDS011;499;42.648;23.270;2024-01-06T06:21:59;14.70;;;11.43;;
1020;SDS011;499;42.648;23.270;2024-01-06T06:25:08;9.70;;;6.77;;
1020;SDS011;499;42.648;23.270;2024-01-06T06:27:53;7.73;;;7.00;;
1020;SDS011;499;42.648;23.270;2024-01-06T06:30:36;7.43;;;6.77;;
1020;SDS011;499;42.648;23.270;2024-01-06T06:33:04;8.30;;;7.47;;
1020;SDS011;499;42.648;23.270;2024-01-06T06:35:35;6.90;;;6.10;;
1020;SDS011;499;42.648;23.270;2024-01-06T06:38:03;8.10;;;5.80;;
1020;SDS011;499;42.648;23.270;2024-01-06T06:40:31;8.67;;;7.33;;
1020;SDS011;499;42.648;23.270;2024-01-06T06:42:58;19.83;;;12.40;;
1020;SDS011;499;42.648;23.270;2024-01-06T06:45:25;17.87;;;13.57;;
1020;SDS011;499;42.648;23.270;2024-01-06T06:48:02;13.80;;;9.73;;
1020;SDS011;499;42.648;23.270;2024-01-06T06:50:32;8.80;;;7.90;;
1020;SDS011;499;42.648;23.270;2024-01-06T06:53:09;11.90;;;10.60;;
1020;SDS011;499;42.648;23.270;2024-01-06T06:55:37;9.00;;;8.10;;
1020;SDS011;499;42.648;23.270;2024-01-06T06:58:06;6.40;;;5.77;;
1020;SDS011;499;42.648;23.270;2024-01-06T07:00:42;9.33;;;8.00;;
1020;SDS011;499;42.648;23.270;2024-01-06T07:03:12;9.07;;;8.00;;
1020;SDS011;499;42.648;23.270;2024-01-06T07:05:50;10.50;;;9.00;;
1020;SDS011;499;42.648;23.270;2024-01-06T07:08:27;11.70;;;9.10;;
1020;SDS011;499;42.648;23.270;2024-01-06T07:10:57;20.00;;;13.40;;
1020;SDS011;499;42.648;23.270;2024-01-06T07:13:31;14.03;;;10.60;;
1020;SDS011;499;42.648;23.270;2024-01-06T07:16:07;18.77;;;13.93;;
1020;SDS011;499;42.648;23.270;2024-01-06T07:18:53;19.13;;;14.83;;
1020;SDS011;499;42.648;23.270;2024-01-06T07:21:48;19.97;;;13.57;;
1020;SDS011;499;42.648;23.270;2024-01-06T07:24:39;15.70;;;11.70;;
1020;SDS011;499;42.648;23.270;2024-01-06T07:27:36;26.33;;;21.50;;
1020;SDS011;499;42.648;23.270;2024-01-06T07:30:26;11.00;;;9.87;;
1020;SDS011;499;42.648;23.270;2024-01-06T07:33:59;15.47;;;10.23;;
1020;SDS011;499;42.648;23.270;2024-01-06T07:36:29;12.37;;;8.80;;
1020;SDS011;499;42.648;23.270;2024-01-06T07:38:58;9.17;;;8.13;;
1020;SDS011;499;42.648;23.270;2024-01-06T07:41:26;30.47;;;18.40;;
1020;SDS011;499;42.648;23.270;2024-01-06T07:43:57;31.30;;;21.87;;
1020;SDS011;499;42.648;23.270;2024-01-06T07:46:32;41.83;;;27.43;;
1020;SDS011;499;42.648;23.270;2024-01-06T07:49:01;36.63;;;26.17;;
1020;SDS011;499;42.648;23.270;2024-01-06T07:51:32;32.73;;;24.43;;
1020;SDS011;499;42.648;23.270;2024-01-06T07:54:03;19.60;;;16.60;;
1020;SDS011;499;42.648;23.270;2024-01-06T07:56:36;20.43;;;15.23;;
1020;SDS011;499;42.648;23.270;2024-01-06T07:59:05;17.83;;;14.10;;
1020;SDS011;499;42.648;23.270;2024-01-06T08:01:32;18.37;;;13.77;;
1020;SDS011;499;42.648;23.270;2024-01-06T08:04:00;15.10;;;12.50;;
1020;SDS011;499;42.648;23.270;2024-01-06T08:06:31;16.67;;;14.27;;
1020;SDS011;499;42.648;23.270;2024-01-06T08:08:59;13.63;;;11.83;;
1020;SDS011;499;42.648;23.270;2024-01-06T08:11:39;8.50;;;7.23;;
1020;SDS011;499;42.648;23.270;2024-01-06T08:14:12;12.70;;;11.17;;
1020;SDS011;499;42.648;23.270;2024-01-06T08:16:47;13.27;;;11.10;;
1020;SDS011;499;42.648;23.270;2024-01-06T08:19:32;16.97;;;12.60;;
1020;SDS011;499;42.648;23.270;2024-01-06T08:22:34;11.90;;;8.30;;
1020;SDS011;499;42.648;23.270;2024-01-06T08:25:04;9.00;;;7.33;;
1020;SDS011;499;42.648;23.270;2024-01-06T08:27:34;11.20;;;8.17;;
1020;SDS011;499;42.648;23.270;2024-01-06T08:30:34;9.50;;;7.60;;
1020;SDS011;499;42.648;23.270;2024-01-06T08:33:19;8.77;;;7.00;;
1020;SDS011;499;42.648;23.270;2024-01-06T08:36:23;10.20;;;8.83;;
1020;SDS011;499;42.648;23.270;2024-01-06T08:39:26;11.03;;;8.33;;
1020;SDS011;499;42.648;23.270;2024-01-06T08:42:32;13.47;;;10.50;;
1020;SDS011;499;42.648;23.270;2024-01-06T08:45:21;9.93;;;8.93;;
1020;SDS011;499;42.648;23.270;2024-01-06T08:48:19;16.83;;;10.67;;
1020;SDS011;499;42.648;23.270;2024-01-06T08:50:59;13.07;;;9.90;;
1020;SDS011;499;42.648;23.270;2024-01-06T08:53:39;11.00;;;8.97;;
1020;SDS011;499;42.648;23.270;2024-01-06T08:56:11;13.37;;;10.67;;
1020;SDS011;499;42.648;23.270;2024-01-06T08:58:58;15.73;;;13.53;;
1020;SDS011;499;42.648;23.270;2024-01-06T09:01:38;15.80;;;13.90;;
1020;SDS011;499;42.648;23.270;2024-01-06T09:04:11;18.80;;;13.70;;
1020;SDS011;499;42.648;23.270;2024-01-06T09:06:47;16.03;;;13.23;;
1020;SDS011;499;42.648;23.270;2024-01-06T09:09:20;22.10;;;15.13;;
1020;SDS011;499;42.648;23.270;2024-01-06T09:11:51;16.10;;;13.80;;
1020;SDS011;499;42.648;23.270;2024-01-06T09:14:36;15.73;;;12.40;;
1020;SDS011;499;42.648;23.270;2024-01-06T09:17:04;13.83;;;12.20;;
1020;SDS011;499;42.648;23.270;2024-01-06T09:19:32;18.50;;;14.70;;
1020;SDS011;499;42.648;23.270;2024-01-06T09:22:00;19.60;;;12.47;;
1020;SDS011;499;42.648;23.270;2024-01-06T09:24:31;14.23;;;11.90;;
1020;SDS011;499;42.648;23.270;2024-01-06T09:27:15;15.90;;;11.43;;
1020;SDS011;499;42.648;23.270;2024-01-06T09:29:51;16.80;;;12.33;;
1020;SDS011;499;42.648;23.270;2024-01-06T09:32:19;18.40;;;14.10;;
1020;SDS011;499;42.648;23.270;2024-01-06T09:34:53;14.37;;;11.10;;
1020;SDS011;499;42.648;23.270;2024-01-06T09:37:20;26.90;;;16.13;;
1020;SDS011;499;42.648;23.270;2024-01-06T09:39:48;18.80;;;12.90;;
1020;SDS011;499;42.648;23.270;2024-01-06T09:42:19;15.00;;;12.13;;
1020;SDS011;499;42.648;23.270;2024-01-06T09:44:53;13.50;;;11.30;;
1020;SDS011;499;42.648;23.270;2024-01-06T09:47:23;18.10;;;11.43;;
1020;SDS011;499;42.648;23.270;2024-01-06T09:49:55;14.93;;;11.73;;
1020;SDS011;499;42.648;23.270;2024-01-06T09:52:28;21.97;;;15.00;;
1020;SDS011;499;42.648;23.270;2024-01-06T09:54:59;23.40;;;15.93;;
1020;SDS011;499;42.648;23.270;2024-01-06T09:57:29;20.80;;;14.97;;
1020;SDS011;499;42.648;23.270;2024-01-06T09:59:59;19.43;;;13.50;;
1020;SDS011;499;42.648;23.270;2024-01-06T10:02:27;12.97;;;10.50;;
1020;SDS011;499;42.648;23.270;2024-01-06T10:04:56;15.50;;;10.57;;
1020;SDS011;499;42.648;23.270;2024-01-06T10:07:25;21.73;;;11.30;;
1020;SDS011;499;42.648;23.270;2024-01-06T10:10:00;33.10;;;21.20;;
1020;SDS011;499;42.648;23.270;2024-01-06T10:12:29;40.17;;;30.50;;
1020;SDS011;499;42.648;23.270;2024-01-06T10:15:04;26.97;;;14.90;;
1020;SDS011;499;42.648;23.270;2024-01-06T10:17:33;16.90;;;11.20;;
1020;SDS011;499;42.648;23.270;2024-01-06T10:20:02;23.20;;;14.40;;
1020;SDS011;499;42.648;23.270;2024-01-06T10:22:34;20.37;;;14.50;;
1020;SDS011;499;42.648;23.270;2024-01-06T10:25:02;45.20;;;32.90;;
1020;SDS011;499;42.648;23.270;2024-01-06T10:27:29;31.07;;;19.77;;
1020;SDS011;499;42.648;23.270;2024-01-06T10:29:56;20.43;;;11.33;;
1020;SDS011;499;42.648;23.270;2024-01-06T10:32:24;13.60;;;10.73;;
1020;SDS011;499;42.648;23.270;2024-01-06T10:34:54;13.57;;;10.40;;
1020;SDS011;499;42.648;23.270;2024-01-06T10:37:22;14.70;;;10.87;;
1020;SDS011;499;42.648;23.270;2024-01-06T10:40:04;14.93;;;11.30;;
1020;SDS011;499;42.648;23.270;2024-01-06T10:42:36;11.47;;;10.27;;
1020;SDS011;499;42.648;23.270;2024-01-06T10:45:10;13.90;;;10.73;;
1020;SDS011;499;42.648;23.270;2024-01-06T10:47:43;14.13;;;11.07;;
1020;SDS011;499;42.648;23.270;2024-01-06T10:50:15;11.33;;;10.10;;
1020;SDS011;499;42.648;23.270;2024-01-06T10:52:46;15.10;;;10.20;;
1020;SDS011;499;42.648;23.270;2024-01-06T10:55:15;14.07;;;9.83;;
1020;SDS011;499;42.648;23.270;2024-01-06T10:57:45;14.03;;;9.33;;
1020;SDS011;499;42.648;23.270;2024-01-06T11:00:27;17.43;;;11.00;;
1020;SDS011;499;42.648;23.270;2024-01-06T11:03:13;11.80;;;8.83;;
1020;SDS011;499;42.648;23.270;2024-01-06T11:05:43;16.40;;;8.60;;
1020;SDS011;499;42.648;23.270;2024-01-06T11:08:25;11.40;;;7.87;;
1020;SDS011;499;42.648;23.270;2024-01-06T11:11:16;14.37;;;11.20;;
1020;SDS011;499;42.648;23.270;2024-01-06T11:14:18;10.70;;;8.70;;
1020;SDS011;499;42.648;23.270;2024-01-06T11:17:13;11.70;;;8.90;;
1020;SDS011;499;42.648;23.270;2024-01-06T11:24:13;12.00;;;9.40;;
1020;SDS011;499;42.648;23.270;2024-01-06T11:26:43;14.67;;;9.13;;
1020;SDS011;499;42.648;23.270;2024-01-06T11:29:12;15.97;;;12.20;;
1020;SDS011;499;42.648;23.270;2024-01-06T11:31:41;14.50;;;10.80;;
1020;SDS011;499;42.648;23.270;2024-01-06T11:34:12;19.47;;;13.43;;
1020;SDS011;499;42.648;23.270;2024-01-06T11:36:44;21.90;;;13.80;;
1020;SDS011;499;42.648;23.270;2024-01-06T11:42:01;17.30;;;13.93;;
1020;SDS011;499;42.648;23.270;2024-01-06T11:44:33;18.23;;;13.20;;
1020;SDS011;499;42.648;23.270;2024-01-06T11:47:03;15.20;;;13.67;;
1020;SDS011;499;42.648;23.270;2024-01-06T11:49:31;16.70;;;11.70;;
1020;SDS011;499;42.648;23.270;2024-01-06T11:52:01;13.87;;;11.43;;
1020;SDS011;499;42.648;23.270;2024-01-06T11:54:29;18.17;;;12.23;;
1020;SDS011;499;42.648;23.270;2024-01-06T11:57:02;16.80;;;12.07;;
1020;SDS011;499;42.648;23.270;2024-01-06T11:59:32;14.73;;;11.90;;
1020;SDS011;499;42.648;23.270;2024-01-06T12:02:13;15.50;;;12.47;;
1020;SDS011;499;42.648;23.270;2024-01-06T12:04:53;17.43;;;10.60;;
1020;SDS011;499;42.648;23.270;2024-01-06T12:07:30;13.80;;;12.30;;
1020;SDS011;499;42.648;23.270;2024-01-06T12:10:05;15.20;;;11.10;;
1020;SDS011;499;42.648;23.270;2024-01-06T12:12:40;17.03;;;11.53;;
1020;SDS011;499;42.648;23.270;2024-01-06T12:15:11;14.30;;;10.97;;
1020;SDS011;499;42.648;23.270;2024-01-06T12:17:58;13.73;;;11.30;;
1020;SDS011;499;42.648;23.270;2024-01-06T12:20:30;12.60;;;10.17;;
1020;SDS011;499;42.648;23.270;2024-01-06T12:23:04;15.50;;;11.93;;
1020;SDS011;499;42.648;23.270;2024-01-06T12:25:35;12.83;;;10.70;;
1020;SDS011;499;42.648;23.270;2024-01-06T12:28:05;15.17;;;11.10;;
1020;SDS011;499;42.648;23.270;2024-01-06T12:30:33;14.00;;;9.50;;
1020;SDS011;499;42.648;23.270;2024-01-06T12:33:01;16.13;;;10.30;;
1020;SDS011;499;42.648;23.270;2024-01-06T12:35:34;12.53;;;10.87;;
1020;SDS011;499;42.648;23.270;2024-01-06T12:38:03;12.87;;;9.33;;
1020;SDS011;499;42.648;23.270;2024-01-06T12:40:36;12.90;;;9.80;;
1020;SDS011;499;42.648;23.270;2024-01-06T12:43:04;14.57;;;10.97;;
1020;SDS011;499;42.648;23.270;2024-01-06T12:45:36;13.83;;;10.97;;
1020;SDS011;499;42.648;23.270;2024-01-06T12:48:27;13.00;;;11.60;;
1020;SDS011;499;42.648;23.270;2024-01-06T12:51:10;18.93;;;11.17;;
1020;SDS011;499;42.648;23.270;2024-01-06T12:53:51;13.50;;;10.93;;
1020;SDS011;499;42.648;23.270;2024-01-06T12:56:20;17.10;;;10.87;;
1020;SDS011;499;42.648;23.270;2024-01-06T12:58:55;16.40;;;12.43;;
1020;SDS011;499;42.648;23.270;2024-01-06T13:01:48;16.50;;;12.67;;
1020;SDS011;499;42.648;23.270;2024-01-06T13:04:15;18.43;;;14.63;;
1020;SDS011;499;42.648;23.270;2024-01-06T13:06:42;18.93;;;13.83;;
1020;SDS011;499;42.648;23.270;2024-01-06T13:09:11;16.43;;;12.27;;
1020;SDS011;499;42.648;23.270;2024-01-06T13:11:42;17.83;;;11.43;;
1020;SDS011;499;42.648;23.270;2024-01-06T13:14:15;12.07;;;10.33;;
1020;SDS011;499;42.648;23.270;2024-01-06T13:16:43;17.03;;;11.10;;
1020;SDS011;499;42.648;23.270;2024-01-06T13:19:11;13.23;;;10.90;;
1020;SDS011;499;42.648;23.270;2024-01-06T13:21:56;14.17;;;11.03;;
1020;SDS011;499;42.648;23.270;2024-01-06T13:24:27;13.20;;;11.17;;
1020;SDS011;499;42.648;23.270;2024-01-06T13:27:01;18.67;;;12.10;;
1020;SDS011;499;42.648;23.270;2024-01-06T13:29:30;11.97;;;9.67;;
1020;SDS011;499;42.648;23.270;2024-01-06T13:32:12;14.60;;;10.50;;
1020;SDS011;499;42.648;23.270;2024-01-06T13:34:41;15.97;;;10.67;;
1020;SDS011;499;42.648;23.270;2024-01-06T13:37:11;13.13;;;10.77;;
1020;SDS011;499;42.648;23.270;2024-01-06T13:39:48;16.63;;;10.90;;
1020;SDS011;499;42.648;23.270;2024-01-06T13:42:21;25.47;;;14.90;;
1020;SDS011;499;42.648;23.270;2024-01-06T13:44:49;19.87;;;14.43;;
1020;SDS011;499;42.648;23.270;2024-01-06T13:47:18;18.77;;;13.63;;
1020;SDS011;499;42.648;23.270;2024-01-06T13:49:45;21.13;;;14.43;;
1020;SDS011;499;42.648;23.270;2024-01-06T13:52:12;22.90;;;14.67;;
1020;SDS011;499;42.648;23.270;2024-01-06T13:54:40;19.60;;;14.03;;
1020;SDS011;499;42.648;23.270;2024-01-06T14:00:20;37.03;;;19.70;;
1020;SDS011;499;42.648;23.270;2024-01-06T14:02:48;19.27;;;15.30;;
1020;SDS011;499;42.648;23.270;2024-01-06T14:05:33;22.97;;;16.90;;
1020;SDS011;499;42.648;23.270;2024-01-06T14:08:03;25.23;;;17.10;;
1020;SDS011;499;42.648;23.270;2024-01-06T14:10:32;30.20;;;26.27;;
1020;SDS011;499;42.648;23.270;2024-01-06T14:13:02;34.00;;;28.57;;
1020;SDS011;499;42.648;23.270;2024-01-06T14:15:29;30.60;;;22.43;;
1020;SDS011;499;42.648;23.270;2024-01-06T14:17:59;21.20;;;16.63;;
1020;SDS011;499;42.648;23.270;2024-01-06T14:21:03;16.93;;;13.23;;
1020;SDS011;499;42.648;23.270;2024-01-06T14:24:13;16.80;;;12.53;;
1020;SDS011;499;42.648;23.270;2024-01-06T14:26:56;20.80;;;16.07;;
1020;SDS011;499;42.648;23.270;2024-01-06T14:29:49;23.57;;;15.87;;
1020;SDS011;499;42.648;23.270;2024-01-06T14:32:49;19.10;;;15.20;;
1020;SDS011;499;42.648;23.270;2024-01-06T14:35:33;21.87;;;17.40;;
1020;SDS011;499;42.648;23.270;2024-01-06T14:38:05;18.00;;;13.73;;
1020;SDS011;499;42.648;23.270;2024-01-06T14:40:35;17.53;;;13.90;;
1020;SDS011;499;42.648;23.270;2024-01-06T14:43:24;16.47;;;13.50;;
1020;SDS011;499;42.648;23.270;2024-01-06T14:46:07;17.13;;;13.43;;
1020;SDS011;499;42.648;23.270;2024-01-06T14:49:17;16.13;;;13.90;;
1020;SDS011;499;42.648;23.270;2024-01-06T14:52:28;11.97;;;10.30;;
1020;SDS011;499;42.648;23.270;2024-01-06T14:55:09;10.00;;;9.00;;
1020;SDS011;499;42.648;23.270;2024-01-06T14:57:45;9.80;;;6.47;;
1020;SDS011;499;42.648;23.270;2024-01-06T15:00:44;8.60;;;6.70;;
1020;SDS011;499;42.648;23.270;2024-01-06T15:03:25;10.30;;;8.10;;
1020;SDS011;499;42.648;23.270;2024-01-06T15:06:20;13.43;;;11.70;;
1020;SDS011;499;42.648;23.270;2024-01-06T15:09:21;27.07;;;19.00;;
1020;SDS011;499;42.648;23.270;2024-01-06T15:11:51;19.47;;;16.40;;
1020;SDS011;499;42.648;23.270;2024-01-06T15:14:24;30.43;;;23.67;;
1020;SDS011;499;42.648;23.270;2024-01-06T15:16:59;13.47;;;12.00;;
1020;SDS011;499;42.648;23.270;2024-01-06T15:19:46;23.10;;;20.10;;
1020;SDS011;499;42.648;23.270;2024-01-06T15:22:16;39.20;;;29.10;;
1020;SDS011;499;42.648;23.270;2024-01-06T15:24:54;34.10;;;27.77;;
1020;SDS011;499;42.648;23.270;2024-01-06T15:27:33;31.63;;;28.27;;
1020;SDS011;499;42.648;23.270;2024-01-06T15:30:01;16.17;;;14.57;;
1020;SDS011;499;42.648;23.270;2024-01-06T15:32:33;11.73;;;10.50;;
1020;SDS011;499;42.648;23.270;2024-01-06T15:35:11;11.77;;;9.40;;
1020;SDS011;499;42.648;23.270;2024-01-06T15:37:48;8.27;;;6.40;;
1020;SDS011;499;42.648;23.270;2024-01-06T15:40:29;9.43;;;6.83;;
1020;SDS011;499;42.648;23.270;2024-01-06T15:43:14;9.40;;;6.83;;
1020;SDS011;499;42.648;23.270;2024-01-06T15:46:09;9.30;;;6.10;;
1020;SDS011;499;42.648;23.270;2024-01-06T15:48:41;9.37;;;6.50;;
1020;SDS011;499;42.648;23.270;2024-01-06T15:51:58;17.93;;;16.20;;
1020;SDS011;499;42.648;23.270;2024-01-06T15:54:36;19.73;;;17.63;;
1020;SDS011;499;42.648;23.270;2024-01-06T15:57:03;18.07;;;14.60;;
1020;SDS011;499;42.648;23.270;2024-01-06T15:59:31;17.70;;;14.23;;
1020;SDS011;499;42.648;23.270;2024-01-06T16:01:59;14.90;;;12.07;;
1020;SDS011;499;42.648;23.270;2024-01-06T16:04:32;14.10;;;11.37;;
1020;SDS011;499;42.648;23.270;2024-01-06T16:07:12;16.70;;;11.20;;
1020;SDS011;499;42.648;23.270;2024-01-06T16:09:48;11.53;;;9.70;;
1020;SDS011;499;42.648;23.270;2024-01-06T16:12:38;13.00;;;10.43;;
1020;SDS011;499;42.648;23.270;2024-01-06T16:15:44;15.10;;;12.63;;
1020;SDS011;499;42.648;23.270;2024-01-06T16:18:13;13.00;;;9.13;;
1020;SDS011;499;42.648;23.270;2024-01-06T16:20:55;19.17;;;15.87;;
1020;SDS011;499;42.648;23.270;2024-01-06T16:23:46;18.60;;;14.67;;
1020;SDS011;499;42.648;23.270;2024-01-06T16:26:22;15.93;;;11.17;;
1020;SDS011;499;42.648;23.270;2024-01-06T16:29:05;13.83;;;9.40;;
1020;SDS011;499;42.648;23.270;2024-01-06T16:31:43;9.80;;;8.40;;
1020;SDS011;499;42.648;23.270;2024-01-06T16:35:00;14.53;;;10.60;;
1020;SDS011;499;42.648;23.270;2024-01-06T16:37:44;11.30;;;8.87;;
1020;SDS011;499;42.648;23.270;2024-01-06T16:43:32;9.40;;;6.20;;